createdAt,value
2019-02-15T00:02:40.149Z,58.37
2019-02-15T00:05:29.693Z,58.52
2019-02-15T00:08:18.196Z,58.70
2019-02-15T00:11:07.102Z,58.76
2019-02-15T00:13:55.756Z,58.81
2019-02-15T00:16:44.567Z,59.07
2019-02-15T00:19:38.548Z,59.29
2019-02-15T00:22:27.206Z,59.51
2019-02-15T00:25:16.066Z,59.71
2019-02-15T00:28:05.029Z,59.62
2019-02-15T00:30:53.803Z,59.79
2019-02-15T00:33:42.437Z,59.66
2019-02-15T00:36:31.155Z,59.71
2019-02-15T00:39:20.028Z,59.55
2019-02-15T00:42:08.990Z,59.42
2019-02-15T00:44:58.486Z,59.30
2019-02-15T00:48:06.534Z,59.22
2019-02-15T00:51:25.871Z,59.25
2019-02-15T00:54:32.214Z,59.66
2019-02-15T00:57:40.751Z,59.72
2019-02-15T01:00:56.648Z,59.71
2019-02-15T01:04:04.694Z,60.26
2019-02-15T01:07:11.067Z,60.33
2019-02-15T01:10:21.642Z,60.84
2019-02-15T01:13:21.701Z,60.63
2019-02-15T01:16:10.439Z,60.73
2019-02-15T01:18:59.213Z,60.54
2019-02-15T01:21:48.306Z,60.72
2019-02-15T01:24:38.049Z,60.75
2019-02-15T01:27:46.635Z,60.92
2019-02-15T01:31:08.813Z,61.14
2019-02-15T01:34:19.851Z,61.25
2019-02-15T01:37:30.543Z,61.40
2019-02-15T01:40:49.747Z,61.77
2019-02-15T01:44:06.647Z,61.68
2019-02-15T01:47:03.046Z,61.42
2019-02-15T01:49:51.839Z,61.29
2019-02-15T01:52:40.866Z,61.17
2019-02-15T01:55:29.454Z,61.03
2019-02-15T01:58:17.855Z,61.11
2019-02-15T02:01:06.764Z,61.27
2019-02-15T02:03:55.127Z,61.44
2019-02-15T02:06:44.127Z,61.51
2019-02-15T02:09:34.690Z,61.23
2019-02-15T02:12:23.491Z,61.39
2019-02-15T02:15:12.055Z,61.49
2019-02-15T02:18:00.819Z,61.48
2019-02-15T02:20:49.208Z,61.64
2019-02-15T02:23:38.224Z,61.68
2019-02-15T02:26:27.521Z,61.66
2019-02-15T02:29:16.384Z,61.60
2019-02-15T02:32:05.220Z,61.57
2019-02-15T02:34:54.463Z,61.40
2019-02-15T02:37:42.989Z,61.54
2019-02-15T02:40:31.859Z,61.86
2019-02-15T02:43:20.121Z,62.12
2019-02-15T02:46:08.568Z,62.07
2019-02-15T02:48:56.878Z,62.57
2019-02-15T02:51:45.784Z,61.99
2019-02-15T02:54:34.967Z,61.98
2019-02-15T02:57:23.250Z,61.89
2019-02-15T03:00:12.234Z,62.14
2019-02-15T03:03:01.109Z,61.97
2019-02-15T03:05:50.072Z,62.15
2019-02-15T03:08:38.353Z,62.06
2019-02-15T03:11:27.153Z,62.20
2019-02-15T03:14:16.450Z,62.16
2019-02-15T03:17:04.873Z,62.07
2019-02-15T03:19:54.206Z,61.96
2019-02-15T03:22:42.198Z,61.82
2019-02-15T03:25:31.108Z,62.08
2019-02-15T03:28:19.676Z,62.05
2019-02-15T03:31:08.564Z,62.05
2019-02-15T03:33:57.252Z,62.15
2019-02-15T03:37:04.556Z,62.30
2019-02-15T03:39:56.530Z,62.34
2019-02-15T03:42:44.563Z,62.19
2019-02-15T03:45:32.957Z,62.31
2019-02-15T03:48:21.756Z,62.20
2019-02-15T03:51:10.010Z,62.25
2019-02-15T03:53:58.135Z,62.07
2019-02-15T03:56:47.366Z,62.12
2019-02-15T03:59:36.557Z,62.16
2019-02-15T04:02:24.972Z,62.22
2019-02-15T04:05:13.664Z,62.23
2019-02-15T04:08:02.865Z,62.16
2019-02-15T04:10:51.139Z,61.95
2019-02-15T04:13:39.957Z,62.11
2019-02-15T04:16:28.446Z,62.12
2019-02-15T04:19:17.634Z,62.12
2019-02-15T04:22:05.747Z,61.99
2019-02-15T04:24:54.859Z,62.17
2019-02-15T04:27:43.643Z,62.15
2019-02-15T04:30:32.668Z,62.30
2019-02-15T04:33:21.638Z,62.30
2019-02-15T04:36:10.748Z,62.40
2019-02-15T04:38:59.038Z,62.62
2019-02-15T04:41:47.868Z,62.50
2019-02-15T04:44:42.871Z,62.35
2019-02-15T04:47:27.420Z,62.52
2019-02-15T04:50:16.527Z,62.49
2019-02-15T04:53:05.273Z,62.69
2019-02-15T04:55:54.142Z,62.62
2019-02-15T04:58:43.034Z,62.72
2019-02-15T05:01:31.798Z,62.70
2019-02-15T05:04:20.446Z,62.63
2019-02-15T05:07:09.277Z,62.51
2019-02-15T05:09:57.826Z,62.49
2019-02-15T05:12:47.118Z,62.81
2019-02-15T05:15:36.036Z,62.79
2019-02-15T05:18:24.344Z,62.97
2019-02-15T05:21:13.574Z,62.92
2019-02-15T05:24:02.779Z,63.09
2019-02-15T05:26:51.620Z,63.03
2019-02-15T05:29:40.803Z,63.16
2019-02-15T05:32:29.333Z,63.15
2019-02-15T05:35:18.203Z,63.34
2019-02-15T05:38:06.575Z,63.48
2019-02-15T05:40:55.331Z,63.57
2019-02-15T05:43:44.050Z,63.64
2019-02-15T05:46:32.811Z,63.72
2019-02-15T05:49:21.520Z,63.50
2019-02-15T05:52:10.651Z,63.52
2019-02-15T05:54:59.509Z,63.58
2019-02-15T05:57:49.547Z,63.50
2019-02-15T06:00:38.470Z,63.53
2019-02-15T06:03:27.694Z,63.61
2019-02-15T06:06:16.869Z,63.70
2019-02-15T06:09:06.729Z,63.72
2019-02-15T06:11:55.500Z,63.69
2019-02-15T06:14:44.361Z,63.69
2019-02-15T06:17:32.654Z,63.77
2019-02-15T06:20:21.186Z,63.85
2019-02-15T06:23:09.618Z,63.63
2019-02-15T06:25:57.876Z,63.67
2019-02-15T06:28:46.435Z,63.62
2019-02-15T06:31:35.179Z,63.53
2019-02-15T06:34:24.357Z,63.44
2019-02-15T06:37:13.215Z,63.53
2019-02-15T06:40:01.802Z,63.58
2019-02-15T06:42:50.667Z,63.63
2019-02-15T06:45:39.913Z,63.54
2019-02-15T06:48:29.092Z,63.68
2019-02-15T06:51:18.000Z,63.45
2019-02-15T06:54:06.758Z,63.24
2019-02-15T06:56:55.807Z,63.19
2019-02-15T07:00:01.937Z,63.22
2019-02-15T07:03:05.395Z,63.29
2019-02-15T07:05:53.543Z,63.44
2019-02-15T07:08:42.199Z,63.68
2019-02-15T07:11:31.249Z,63.73
2019-02-15T07:14:20.964Z,63.88
2019-02-15T07:17:10.234Z,63.80
2019-02-15T07:19:58.995Z,64.11
2019-02-15T07:22:49.935Z,64.33
2019-02-15T07:25:38.817Z,64.15
2019-02-15T07:28:27.614Z,64.12
2019-02-15T07:31:16.102Z,64.29
2019-02-15T07:34:05.394Z,63.96
2019-02-15T07:36:54.835Z,63.73
2019-02-15T07:39:43.450Z,63.77
2019-02-15T07:42:31.818Z,63.70
2019-02-15T07:45:20.420Z,63.71
2019-02-15T07:48:09.265Z,63.34
2019-02-15T07:50:58.624Z,63.21
2019-02-15T07:53:48.107Z,63.23
2019-02-15T07:56:37.006Z,63.17
2019-02-15T07:59:27.287Z,63.09
2019-02-15T08:02:16.552Z,63.08
2019-02-15T08:05:06.462Z,62.89
2019-02-15T08:07:55.652Z,62.84
2019-02-15T08:10:44.556Z,62.96
2019-02-15T08:13:33.572Z,62.93
2019-02-15T08:16:22.620Z,63.05
2019-02-15T08:19:12.346Z,62.95
2019-02-15T08:22:01.391Z,63.08
2019-02-15T08:24:50.788Z,63.02
2019-02-15T08:27:39.739Z,62.75
2019-02-15T08:30:28.713Z,62.76
2019-02-15T08:33:17.674Z,62.43
2019-02-15T08:36:06.279Z,62.46
2019-02-15T08:38:55.494Z,62.48
2019-02-15T08:42:00.273Z,62.31
2019-02-15T08:44:34.055Z,62.01
2019-02-15T08:47:22.460Z,62.12
2019-02-15T08:50:11.833Z,61.90
2019-02-15T08:53:00.855Z,61.68
2019-02-15T08:55:50.039Z,61.46
2019-02-15T08:58:38.367Z,61.28
2019-02-15T09:01:26.838Z,61.00
2019-02-15T09:04:15.557Z,61.21
2019-02-15T09:07:04.470Z,60.71
2019-02-15T09:09:53.496Z,60.23
2019-02-15T09:12:42.356Z,60.26
2019-02-15T09:15:31.389Z,59.80
2019-02-15T09:18:19.734Z,59.21
2019-02-15T09:21:08.228Z,59.05
2019-02-15T09:23:57.320Z,59.11
2019-02-15T09:26:46.036Z,58.44
2019-02-15T09:29:35.221Z,58.54
2019-02-15T09:32:24.441Z,58.34
2019-02-15T09:35:12.917Z,56.21
2019-02-15T09:38:02.371Z,56.00
2019-02-15T09:40:51.104Z,55.33
2019-02-15T09:43:39.821Z,53.72
2019-02-15T09:46:28.253Z,54.84
2019-02-15T09:49:17.231Z,53.93
2019-02-15T09:52:06.252Z,53.11
2019-02-15T09:54:55.100Z,52.78
2019-02-15T09:57:43.805Z,52.37
2019-02-15T10:00:32.957Z,51.88
2019-02-15T10:03:21.478Z,51.23
2019-02-15T10:06:10.436Z,51.11
2019-02-15T10:08:59.782Z,51.19
2019-02-15T10:11:48.489Z,51.17
2019-02-15T10:14:37.531Z,51.17
2019-02-15T10:17:26.799Z,50.54
2019-02-15T10:20:15.633Z,50.31
2019-02-15T10:23:04.626Z,49.70
2019-02-15T10:25:52.768Z,49.67
2019-02-15T10:28:41.557Z,48.92
2019-02-15T10:31:30.571Z,49.16
2019-02-15T10:34:18.808Z,47.59
2019-02-15T10:37:07.564Z,47.67
2019-02-15T10:39:56.825Z,46.79
2019-02-15T10:42:46.086Z,47.88
2019-02-15T10:45:35.145Z,45.69
2019-02-15T10:48:23.571Z,47.38
2019-02-15T10:51:12.322Z,45.73
2019-02-15T10:54:01.567Z,45.33
2019-02-15T10:56:50.367Z,46.90
2019-02-15T10:59:39.124Z,46.25
2019-02-15T11:02:28.389Z,46.74
2019-02-15T11:05:17.779Z,45.36
2019-02-15T11:08:06.352Z,43.44
2019-02-15T11:10:55.000Z,43.18
2019-02-15T11:13:43.861Z,43.11
2019-02-15T11:16:33.182Z,44.03
2019-02-15T11:19:22.363Z,43.45
2019-02-15T11:22:11.549Z,42.46
2019-02-15T11:25:00.045Z,43.05
2019-02-15T11:27:48.910Z,41.93
2019-02-15T11:30:37.941Z,42.10
2019-02-15T11:33:26.561Z,41.95
2019-02-15T11:36:15.985Z,42.14
2019-02-15T11:39:05.832Z,38.70
2019-02-15T11:41:54.477Z,41.10
2019-02-15T11:44:43.364Z,40.26
2019-02-15T11:47:31.657Z,39.86
2019-02-15T11:50:20.548Z,37.54
2019-02-15T11:53:09.303Z,38.37
2019-02-15T11:55:57.576Z,38.44
2019-02-15T11:58:45.992Z,36.21
2019-02-15T12:01:35.089Z,37.03
2019-02-15T12:04:24.284Z,35.81
2019-02-15T12:07:13.626Z,35.19
2019-02-15T12:10:02.207Z,36.54
2019-02-15T12:12:53.850Z,34.59
2019-02-15T12:15:42.154Z,35.07
2019-02-15T12:18:30.765Z,34.32
2019-02-15T12:21:19.603Z,33.68
2019-02-15T12:24:08.762Z,33.61
2019-02-15T12:26:57.301Z,33.13
2019-02-15T12:29:46.116Z,33.07
2019-02-15T12:32:35.200Z,32.01
2019-02-15T12:35:24.535Z,32.01
2019-02-15T12:38:13.491Z,31.64
2019-02-15T12:41:01.194Z,31.85
2019-02-15T12:43:48.344Z,31.04
2019-02-15T12:46:36.153Z,29.91
2019-02-15T12:49:23.919Z,30.52
2019-02-15T12:52:11.680Z,29.89
2019-02-15T12:54:59.141Z,30.33
2019-02-15T12:57:46.411Z,29.04
2019-02-15T13:00:34.633Z,28.38
2019-02-15T13:03:21.865Z,30.20
2019-02-15T13:06:09.125Z,29.67
2019-02-15T13:08:56.871Z,29.80
2019-02-15T13:11:44.374Z,29.07
2019-02-15T13:14:32.117Z,29.38
2019-02-15T13:17:24.708Z,29.20
2019-02-15T13:20:08.886Z,29.08
2019-02-15T13:22:56.614Z,28.85
2019-02-15T13:25:43.913Z,28.27
2019-02-15T13:28:31.786Z,28.30
2019-02-15T13:31:19.937Z,28.03
2019-02-15T13:34:07.089Z,28.25
2019-02-15T13:36:54.352Z,28.90
2019-02-15T13:39:41.811Z,28.11
2019-02-15T13:42:29.297Z,27.67
2019-02-15T13:45:16.806Z,26.72
2019-02-15T13:48:04.134Z,26.96
2019-02-15T13:50:52.262Z,27.55
2019-02-15T13:53:39.652Z,27.49
2019-02-15T13:56:27.023Z,27.01
2019-02-15T13:59:15.071Z,26.69
2019-02-15T14:02:02.490Z,26.07
2019-02-15T14:04:50.134Z,26.73
2019-02-15T14:07:38.199Z,26.45
2019-02-15T14:10:25.889Z,26.06
2019-02-15T14:13:14.143Z,27.37
2019-02-15T14:16:02.153Z,27.27
2019-02-15T14:18:49.939Z,28.77
2019-02-15T14:21:44.231Z,30.53
2019-02-15T14:24:26.201Z,30.30
2019-02-15T14:27:13.349Z,31.26
2019-02-15T14:30:00.614Z,31.41
2019-02-15T14:32:48.218Z,32.64
2019-02-15T14:35:35.615Z,32.00
2019-02-15T14:38:24.204Z,32.45
2019-02-15T14:41:12.762Z,32.57
2019-02-15T14:44:01.726Z,34.17
2019-02-15T14:46:50.794Z,34.24
2019-02-15T14:49:38.504Z,33.84
2019-02-15T14:52:26.561Z,34.50
2019-02-15T14:55:13.854Z,34.85
2019-02-15T14:58:01.982Z,36.04
2019-02-15T15:00:50.530Z,36.26
2019-02-15T15:03:38.969Z,36.56
2019-02-15T15:06:28.007Z,36.39
2019-02-15T15:09:17.336Z,36.20
2019-02-15T15:12:06.436Z,36.17
2019-02-15T15:14:54.908Z,36.33
2019-02-15T15:17:44.135Z,36.76
2019-02-15T15:20:35.277Z,36.79
2019-02-15T15:23:24.190Z,38.15
2019-02-15T15:26:13.494Z,37.72
2019-02-15T15:29:02.251Z,37.60
2019-02-15T15:31:50.967Z,37.74
2019-02-15T15:34:40.100Z,38.26
2019-02-15T15:37:28.570Z,38.42
2019-02-15T15:40:17.697Z,38.55
2019-02-15T15:43:06.535Z,39.01
2019-02-15T15:45:55.164Z,39.66
2019-02-15T15:48:44.567Z,39.90
2019-02-15T15:51:33.473Z,38.19
2019-02-15T15:54:22.435Z,37.60
2019-02-15T15:57:11.157Z,36.61
2019-02-15T16:00:00.040Z,36.77
2019-02-15T16:02:48.825Z,36.87
2019-02-15T16:05:37.716Z,36.80
2019-02-15T16:08:26.682Z,37.10
2019-02-15T16:11:15.852Z,37.67
2019-02-15T16:14:05.689Z,37.90
2019-02-15T16:16:57.126Z,38.97
2019-02-15T16:19:49.423Z,38.33
2019-02-15T16:22:34.527Z,38.67
2019-02-15T16:25:23.117Z,38.56
2019-02-15T16:28:12.302Z,38.18
2019-02-15T16:31:01.378Z,38.60
2019-02-15T16:33:49.821Z,38.34
2019-02-15T16:36:39.386Z,38.68
2019-02-15T16:39:28.384Z,38.17
2019-02-15T16:42:17.301Z,39.30
2019-02-15T16:45:07.329Z,39.34
2019-02-15T16:47:55.981Z,39.58
2019-02-15T16:50:44.787Z,39.82
2019-02-15T16:53:33.708Z,40.42
2019-02-15T16:56:22.515Z,40.31
2019-02-15T16:59:11.821Z,40.94
2019-02-15T17:02:00.659Z,40.92
2019-02-15T17:04:49.034Z,41.68
2019-02-15T17:07:38.020Z,42.22
2019-02-15T17:10:27.108Z,42.44
2019-02-15T17:13:15.859Z,43.30
2019-02-15T17:16:04.505Z,43.17
2019-02-15T17:18:53.486Z,43.45
2019-02-15T17:21:42.113Z,43.55
2019-02-15T17:24:31.066Z,44.16
2019-02-15T17:27:19.581Z,44.59
2019-02-15T17:30:09.221Z,44.42
2019-02-15T17:32:57.419Z,45.05
2019-02-15T17:35:46.538Z,44.83
2019-02-15T17:38:35.561Z,45.64
2019-02-15T17:41:24.855Z,46.03
2019-02-15T17:44:13.084Z,45.91
2019-02-15T17:47:02.366Z,45.91
2019-02-15T17:49:51.184Z,46.32
2019-02-15T17:52:40.075Z,47.08
2019-02-15T17:55:28.548Z,47.59
2019-02-15T17:58:17.534Z,47.68
2019-02-15T18:01:06.213Z,48.06
2019-02-15T18:03:55.151Z,48.46
2019-02-15T18:06:44.395Z,48.46
2019-02-15T18:09:34.557Z,48.35
2019-02-15T18:12:23.087Z,48.91
2019-02-15T18:15:11.799Z,49.01
2019-02-15T18:18:00.518Z,48.95
2019-02-15T18:20:49.515Z,49.33
2019-02-15T18:23:38.110Z,49.60
2019-02-15T18:26:27.553Z,49.60
2019-02-15T18:29:16.627Z,50.00
2019-02-15T18:32:05.702Z,50.16
2019-02-15T18:34:54.774Z,50.31
2019-02-15T18:37:43.694Z,50.52
2019-02-15T18:40:32.469Z,50.61
2019-02-15T18:43:22.124Z,50.67
2019-02-15T18:46:11.280Z,51.03
2019-02-15T18:49:00.679Z,51.23
2019-02-15T18:51:49.639Z,51.29
2019-02-15T18:54:38.661Z,51.41
2019-02-15T18:57:28.832Z,51.59
2019-02-15T19:00:18.262Z,51.49
2019-02-15T19:03:07.173Z,51.70
2019-02-15T19:05:56.273Z,51.84
2019-02-15T19:08:45.312Z,51.90
2019-02-15T19:11:34.603Z,52.21
2019-02-15T19:14:23.952Z,52.34
2019-02-15T19:17:13.380Z,52.39
2019-02-15T19:20:02.526Z,52.46
2019-02-15T19:22:51.488Z,52.70
2019-02-15T19:28:22.620Z,52.88
2019-02-15T19:31:12.126Z,52.91
2019-02-15T19:34:00.976Z,53.35
2019-02-15T19:36:50.011Z,53.31
2019-02-15T19:39:40.570Z,53.17
2019-02-15T19:42:29.607Z,53.45
2019-02-15T19:45:19.120Z,53.69
2019-02-15T19:48:08.392Z,53.98
2019-02-15T19:50:57.265Z,53.77
2019-02-15T19:53:45.781Z,54.15
2019-02-15T19:56:35.002Z,54.00
2019-02-15T19:59:23.459Z,53.96
2019-02-15T20:02:12.537Z,54.08
2019-02-15T20:05:01.446Z,53.96
2019-02-15T20:07:50.238Z,53.96
2019-02-15T20:10:41.793Z,54.09
2019-02-15T20:13:30.782Z,54.45
2019-02-15T20:16:20.398Z,54.42
2019-02-15T20:19:09.523Z,54.50
2019-02-15T20:21:58.708Z,54.74
2019-02-15T20:24:49.502Z,54.77
2019-02-15T20:27:38.497Z,54.80
2019-02-15T20:30:28.011Z,54.97
2019-02-15T20:33:19.186Z,55.29
2019-02-15T20:36:08.337Z,55.17
2019-02-15T20:38:57.044Z,55.21
2019-02-15T20:41:45.328Z,55.36
2019-02-15T20:44:35.854Z,55.47
2019-02-15T20:47:24.972Z,55.33
2019-02-15T20:50:14.338Z,55.52
2019-02-15T20:53:03.728Z,55.57
2019-02-15T20:55:52.338Z,55.76
2019-02-15T20:58:41.696Z,56.07
2019-02-15T21:01:30.603Z,56.30
2019-02-15T21:04:20.099Z,56.44
2019-02-15T21:07:09.275Z,56.43
2019-02-15T21:09:58.153Z,56.59
2019-02-15T21:12:47.849Z,56.57
2019-02-15T21:15:36.307Z,56.59
2019-02-15T21:18:25.339Z,56.56
2019-02-15T21:21:13.478Z,57.02
2019-02-15T21:24:02.029Z,56.94
2019-02-15T21:26:50.954Z,56.80
2019-02-15T21:29:39.466Z,56.76
2019-02-15T21:32:28.717Z,56.95
2019-02-15T21:35:17.942Z,56.89
2019-02-15T21:38:07.020Z,56.84
2019-02-15T21:40:55.637Z,56.82
2019-02-15T21:43:44.511Z,56.81
2019-02-15T21:46:33.494Z,56.80
2019-02-15T21:49:22.525Z,56.72
2019-02-15T21:52:10.998Z,56.72
2019-02-15T21:55:00.290Z,57.01
2019-02-15T21:57:48.967Z,57.02
2019-02-15T22:00:37.926Z,57.08
2019-02-15T22:03:26.467Z,57.17
2019-02-15T22:06:15.260Z,57.04
2019-02-15T22:09:05.809Z,57.14
2019-02-15T22:11:54.161Z,57.51
2019-02-15T22:14:47.070Z,57.68
2019-02-15T22:17:35.997Z,57.66
2019-02-15T22:20:27.052Z,57.59
2019-02-15T22:23:15.189Z,57.39
2019-02-15T22:26:03.803Z,57.50
2019-02-15T22:28:52.298Z,57.61
2019-02-15T22:31:41.327Z,57.67
2019-02-15T22:34:30.298Z,58.10
2019-02-15T22:37:19.059Z,58.25
2019-02-15T22:40:25.277Z,58.45
2019-02-15T22:43:18.175Z,58.42
2019-02-15T22:46:06.717Z,58.76
2019-02-15T22:48:55.701Z,58.50
2019-02-15T22:51:44.626Z,58.60
2019-02-15T22:54:33.567Z,58.86
2019-02-15T22:57:22.994Z,58.77
2019-02-15T23:00:20.639Z,58.65
2019-02-15T23:03:08.793Z,58.75
2019-02-15T23:05:58.107Z,58.65
2019-02-15T23:08:47.345Z,58.67
2019-02-15T23:11:35.892Z,58.78
2019-02-15T23:14:24.906Z,58.96
2019-02-15T23:17:13.767Z,59.41
2019-02-15T23:20:02.672Z,59.51
2019-02-15T23:22:51.922Z,59.26
2019-02-15T23:25:41.020Z,59.10
2019-02-15T23:28:29.776Z,59.02
2019-02-15T23:31:18.119Z,59.03
2019-02-15T23:34:06.391Z,58.95
2019-02-15T23:36:54.820Z,59.17
2019-02-15T23:39:43.627Z,59.56
2019-02-15T23:42:32.530Z,59.51
2019-02-15T23:45:20.751Z,59.25
2019-02-15T23:48:09.649Z,58.99
2019-02-15T23:50:58.783Z,58.62
2019-02-15T23:53:47.248Z,58.62
2019-02-15T23:56:35.843Z,58.73
2019-02-15T23:59:24.396Z,59.11
